Time;durP1;ratioP1;P1;durP2;ratioP2;P2;SDS_P1;SDS_P2;PMS_P1;PMS_P2;Temp;Humidity;BMP_temperature;BMP_pressure;BME280_temperature;BME280_humidity;BME280_pressure;Samples;Min_cycle;Max_cycle;Signal;HPM_P1;HPM_P2
2021/04/25 00:01:00;;;;;;;8.13;4.22;;;6.40;94.30;;;;;;5104952;28;20138;-85
2021/04/25 00:03:26;;;;;;;11.32;5.18;;;6.40;94.30;;;;;;5102056;28;20032;-86
2021/04/25 00:05:51;;;;;;;10.40;4.57;;;6.40;94.30;;;;;;5096612;28;20027;-85
2021/04/25 00:08:17;;;;;;;7.95;4.03;;;6.50;94.40;;;;;;5094388;28;20023;-85
2021/04/25 00:10:43;;;;;;;6.53;3.95;;;6.50;94.40;;;;;;5086343;28;20035;-85
2021/04/25 00:13:09;;;;;;;6.95;3.55;;;6.50;94.30;;;;;;5087874;28;20036;-83
2021/04/25 00:15:36;;;;;;;7.93;3.83;;;6.60;94.40;;;;;;5095656;28;20023;-85
2021/04/25 00:18:02;;;;;;;11.60;5.32;;;6.60;94.50;;;;;;5099687;28;20062;-82
2021/04/25 00:20:28;;;;;;;8.13;4.28;;;6.50;94.70;;;;;;5102948;28;20099;-84
2021/04/25 00:22:53;;;;;;;6.88;3.83;;;6.50;94.60;;;;;;5092394;28;20028;-82
2021/04/25 00:25:19;;;;;;;8.90;4.68;;;6.60;94.70;;;;;;5104279;28;20092;-82
2021/04/25 00:27:47;;;;;;;9.57;4.53;;;6.60;94.70;;;;;;5107203;28;20020;-84
2021/04/25 00:30:16;;;;;;;8.95;4.10;;;6.60;94.70;;;;;;5114081;28;20023;-82
2021/04/25 00:32:42;;;;;;;6.68;3.97;;;6.60;94.70;;;;;;5104689;28;20032;-83
2021/04/25 00:35:09;;;;;;;8.05;4.43;;;6.60;94.70;;;;;;5104931;28;20035;-84
2021/04/25 00:37:35;;;;;;;6.78;3.70;;;6.60;94.70;;;;;;5107109;28;20088;-83
2021/04/25 00:40:00;;;;;;;7.57;4.97;;;6.70;94.70;;;;;;5105626;28;20023;-84
2021/04/25 00:42:28;;;;;;;8.63;4.43;;;6.70;94.80;;;;;;5100279;28;20031;-84
2021/04/25 00:44:54;;;;;;;6.80;4.00;;;6.60;94.80;;;;;;5099787;28;20023;-83
2021/04/25 00:47:19;;;;;;;7.93;4.00;;;6.60;94.80;;;;;;5100010;28;20470;-83
2021/04/25 00:49:45;;;;;;;8.23;3.78;;;6.50;94.80;;;;;;5104822;28;20024;-82
2021/04/25 00:52:10;;;;;;;5.88;3.13;;;6.50;94.90;;;;;;5103881;28;20047;-82
2021/04/25 00:54:39;;;;;;;7.22;4.20;;;6.40;94.90;;;;;;5104912;28;20104;-83
2021/04/25 00:57:05;;;;;;;7.65;4.30;;;6.40;95.00;;;;;;5104356;28;20537;-83
2021/04/25 00:59:34;;;;;;;10.32;4.60;;;6.40;95.10;;;;;;5102265;28;20523;-83
2021/04/25 01:02:00;;;;;;;8.57;3.88;;;6.20;95.20;;;;;;5103054;28;20043;-82
2021/04/25 01:04:25;;;;;;;7.05;4.05;;;6.10;95.30;;;;;;5083951;28;20107;-82
2021/04/25 01:06:51;;;;;;;6.00;2.88;;;6.00;95.40;;;;;;5101716;28;20027;-83
2021/04/25 01:09:17;;;;;;;8.85;4.05;;;5.90;95.60;;;;;;5104749;28;20023;-84
2021/04/25 01:11:42;;;;;;;4.97;3.10;;;5.80;95.70;;;;;;5103402;28;20385;-82
2021/04/25 01:14:08;;;;;;;7.72;4.32;;;5.70;95.80;;;;;;5104333;28;20036;-83
2021/04/25 01:16:34;;;;;;;8.85;4.40;;;5.60;95.90;;;;;;5104174;28;20016;-82
2021/04/25 01:18:59;;;;;;;5.80;3.17;;;5.60;96.00;;;;;;5104101;28;20423;-82
2021/04/25 01:21:25;;;;;;;8.18;4.07;;;5.50;96.10;;;;;;5096042;28;20020;-82
2021/04/25 01:23:50;;;;;;;8.57;3.72;;;5.40;96.20;;;;;;5097492;28;20097;-84
2021/04/25 01:26:16;;;;;;;6.25;3.28;;;5.40;96.20;;;;;;5095736;28;20020;-82
2021/04/25 01:28:42;;;;;;;6.38;3.38;;;5.40;96.30;;;;;;5096513;28;20024;-82
2021/04/25 01:31:08;;;;;;;7.25;3.92;;;5.30;96.50;;;;;;5097465;28;20047;-81
2021/04/25 01:33:34;;;;;;;9.20;3.63;;;5.30;96.50;;;;;;5103796;28;20494;-80
2021/04/25 01:36:00;;;;;;;9.23;4.38;;;5.30;96.50;;;;;;5105123;28;20012;-79
2021/04/25 01:38:26;;;;;;;7.55;3.67;;;5.30;96.60;;;;;;5106499;28;20031;-81
2021/04/25 01:40:52;;;;;;;6.35;3.42;;;5.20;96.50;;;;;;5105142;28;20032;-85
2021/04/25 01:43:17;;;;;;;7.72;3.58;;;5.20;96.60;;;;;;5092783;28;20039;-82
2021/04/25 01:45:43;;;;;;;7.75;3.72;;;5.20;96.70;;;;;;5092281;28;20031;-84
2021/04/25 01:48:09;;;;;;;5.97;2.97;;;5.20;96.70;;;;;;5092322;28;20028;-82
2021/04/25 01:50:36;;;;;;;7.25;3.53;;;5.10;96.60;;;;;;5093245;28;20016;-82
2021/04/25 01:53:02;;;;;;;6.03;3.00;;;5.10;96.90;;;;;;5094595;28;20062;-83
2021/04/25 01:55:30;;;;;;;7.40;3.35;;;5.10;96.70;;;;;;5092706;28;20016;-83
2021/04/25 01:57:55;;;;;;;7.50;3.58;;;5.00;96.70;;;;;;5094032;28;20484;-82
2021/04/25 02:00:28;;;;;;;7.38;3.20;;;5.00;96.80;;;;;;5094090;28;20020;-83
2021/04/25 02:02:54;;;;;;;7.65;3.75;;;5.00;96.80;;;;;;5094098;28;20059;-82
2021/04/25 02:05:21;;;;;;;6.88;3.28;;;5.10;96.80;;;;;;5092878;28;20083;-83
2021/04/25 02:07:47;;;;;;;8.95;3.50;;;5.00;96.70;;;;;;5094213;28;20362;-83
2021/04/25 02:10:13;;;;;;;6.82;2.72;;;5.10;96.70;;;;;;5093769;28;20111;-82
2021/04/25 02:12:39;;;;;;;5.28;2.83;;;5.10;96.70;;;;;;5093929;28;20115;-83
2021/04/25 02:15:06;;;;;;;6.63;3.13;;;5.10;96.70;;;;;;5093815;28;20016;-84
2021/04/25 02:17:32;;;;;;;8.60;3.70;;;5.10;96.70;;;;;;5093495;28;20036;-83
2021/04/25 02:19:58;;;;;;;7.07;3.03;;;5.10;96.70;;;;;;5093770;28;20020;-82
2021/04/25 02:22:25;;;;;;;5.82;2.92;;;5.10;96.70;;;;;;5092605;28;20028;-82
2021/04/25 02:24:51;;;;;;;6.15;2.88;;;5.10;96.70;;;;;;5092239;28;20024;-83
2021/04/25 02:27:17;;;;;;;4.75;2.58;;;5.00;96.70;;;;;;5094116;28;20131;-83
2021/04/25 02:29:43;;;;;;;9.18;3.58;;;5.00;96.60;;;;;;5092226;28;20378;-84
2021/04/25 02:32:08;;;;;;;5.78;3.20;;;5.00;96.70;;;;;;5092564;28;20032;-83
2021/04/25 02:34:34;;;;;;;6.22;3.03;;;5.00;96.70;;;;;;5093711;28;20462;-82
2021/04/25 02:37:01;;;;;;;7.75;2.97;;;5.00;96.70;;;;;;5093376;28;20028;-83
2021/04/25 02:39:26;;;;;;;7.22;3.17;;;4.90;96.70;;;;;;5093665;28;20028;-82
2021/04/25 02:41:53;;;;;;;7.97;3.13;;;5.00;96.80;;;;;;5093886;28;20024;-82
2021/04/25 02:44:19;;;;;;;5.93;2.97;;;4.90;96.70;;;;;;5091998;28;20020;-82
2021/04/25 02:46:44;;;;;;;5.35;2.47;;;4.90;96.80;;;;;;5093074;28;20032;-83
2021/04/25 02:49:11;;;;;;;6.90;2.70;;;4.80;96.70;;;;;;5093272;28;20509;-83
2021/04/25 02:51:37;;;;;;;6.50;3.40;;;4.90;96.80;;;;;;5091637;28;20081;-83
2021/04/25 02:54:03;;;;;;;4.88;2.40;;;4.90;96.80;;;;;;5093657;28;20075;-84
2021/04/25 02:56:30;;;;;;;6.78;3.15;;;4.90;96.70;;;;;;5093323;28;20023;-82
2021/04/25 02:58:55;;;;;;;5.28;2.60;;;4.90;96.70;;;;;;5091825;28;20047;-83
2021/04/25 03:01:21;;;;;;;6.00;3.00;;;5.00;96.60;;;;;;5091617;28;20470;-84
2021/04/25 03:03:47;;;;;;;6.22;3.00;;;5.00;96.60;;;;;;5091856;28;20035;-81
2021/04/25 03:06:13;;;;;;;6.97;3.00;;;5.00;96.60;;;;;;5091561;28;20020;-84
2021/04/25 03:08:38;;;;;;;8.25;3.72;;;5.00;96.50;;;;;;5091602;28;20028;-84
2021/04/25 03:11:04;;;;;;;7.03;2.78;;;5.00;96.50;;;;;;5091831;28;20048;-83
2021/04/25 03:13:29;;;;;;;6.95;2.67;;;5.10;96.50;;;;;;5091490;28;20032;-84
2021/04/25 03:15:55;;;;;;;5.45;2.35;;;5.10;96.40;;;;;;5093163;28;20024;-84
2021/04/25 03:18:21;;;;;;;5.47;2.58;;;5.10;96.40;;;;;;5091924;28;20028;-82
2021/04/25 03:20:46;;;;;;;5.60;2.58;;;5.10;96.40;;;;;;5093256;28;20030;-83
2021/04/25 03:23:12;;;;;;;6.43;2.53;;;5.10;96.30;;;;;;5094864;28;20017;-82
2021/04/25 03:25:38;;;;;;;5.53;2.53;;;5.20;96.30;;;;;;5091553;28;20036;-83
2021/04/25 03:28:04;;;;;;;6.53;2.75;;;5.20;96.20;;;;;;5091312;28;20546;-83
2021/04/25 03:30:29;;;;;;;6.93;2.42;;;5.20;96.10;;;;;;5091449;28;20043;-83
2021/04/25 03:32:55;;;;;;;8.27;3.17;;;5.30;96.00;;;;;;5091130;28;20028;-83
2021/04/25 03:35:21;;;;;;;7.63;2.50;;;5.30;95.90;;;;;;5092709;28;20046;-85
2021/04/25 03:37:47;;;;;;;5.70;2.92;;;5.40;95.90;;;;;;5092559;28;20049;-81
2021/04/25 03:40:15;;;;;;;5.90;2.60;;;5.40;95.80;;;;;;5090816;28;20124;-82
2021/04/25 03:42:41;;;;;;;6.55;2.60;;;5.40;95.80;;;;;;5092798;28;20107;-83
2021/04/25 03:45:13;;;;;;;6.70;2.92;;;5.40;95.80;;;;;;5092948;28;20104;-82
2021/04/25 03:47:41;;;;;;;5.25;2.22;;;5.50;95.80;;;;;;5092819;28;20028;-83
2021/04/25 03:50:07;;;;;;;4.07;1.98;;;5.50;95.70;;;;;;5091432;28;20073;-82
2021/04/25 03:52:32;;;;;;;5.50;2.10;;;5.50;95.70;;;;;;5093037;28;20032;-83
2021/04/25 03:54:58;;;;;;;6.95;2.38;;;5.60;95.70;;;;;;5091933;28;20030;-84
2021/04/25 03:57:23;;;;;;;5.32;1.98;;;5.60;95.70;;;;;;5093579;28;20034;-84
2021/04/25 03:59:49;;;;;;;4.57;1.80;;;5.60;95.60;;;;;;5092923;28;20017;-83
2021/04/25 04:02:15;;;;;;;4.72;1.88;;;5.60;95.60;;;;;;5095249;28;20398;-83
2021/04/25 04:04:41;;;;;;;5.35;1.92;;;5.60;95.60;;;;;;5095864;28;20035;-84
2021/04/25 04:07:06;;;;;;;4.80;1.98;;;5.70;95.50;;;;;;5096985;28;20091;-83
2021/04/25 04:09:32;;;;;;;6.43;2.00;;;5.70;95.50;;;;;;5095900;28;20073;-84
2021/04/25 04:11:57;;;;;;;5.63;2.50;;;5.70;95.50;;;;;;5096376;28;20117;-83
2021/04/25 04:14:23;;;;;;;4.78;2.17;;;5.70;95.40;;;;;;5097516;28;20317;-83
2021/04/25 04:16:48;;;;;;;7.18;2.53;;;5.70;95.40;;;;;;5096557;28;20054;-82
2021/04/25 04:19:14;;;;;;;6.40;2.55;;;5.70;95.30;;;;;;5096541;28;20024;-83
2021/04/25 04:21:39;;;;;;;6.10;2.42;;;5.70;95.20;;;;;;5095089;28;20509;-84
2021/04/25 04:24:07;;;;;;;5.32;2.17;;;5.70;95.20;;;;;;5095708;28;20081;-81
2021/04/25 04:26:32;;;;;;;5.05;1.80;;;5.70;95.20;;;;;;5095864;28;20028;-82
2021/04/25 04:28:58;;;;;;;5.45;1.90;;;5.70;95.40;;;;;;5096233;28;20030;-82
2021/04/25 04:31:23;;;;;;;4.88;2.22;;;5.70;95.20;;;;;;5096044;28;20028;-82
2021/04/25 04:33:49;;;;;;;6.35;1.80;;;5.70;95.10;;;;;;5094448;28;20070;-82
2021/04/25 04:36:15;;;;;;;6.10;2.40;;;5.80;95.20;;;;;;5095670;28;20024;-83
2021/04/25 04:38:40;;;;;;;6.05;2.20;;;5.80;95.10;;;;;;5094634;28;20020;-83
2021/04/25 04:41:06;;;;;;;7.22;2.50;;;5.80;95.10;;;;;;5096045;28;20122;-83
2021/04/25 04:43:31;;;;;;;4.82;2.00;;;5.80;95.00;;;;;;5094319;28;20393;-83
2021/04/25 04:45:57;;;;;;;6.40;2.55;;;5.80;95.00;;;;;;5095361;28;20051;-83
2021/04/25 04:48:23;;;;;;;5.20;1.73;;;5.90;95.00;;;;;;5095656;28;20027;-82
2021/04/25 04:50:49;;;;;;;3.90;1.80;;;5.90;95.00;;;;;;5094443;28;20026;-83
2021/04/25 04:53:14;;;;;;;4.30;1.77;;;5.90;95.00;;;;;;5095258;28;20044;-82
2021/04/25 04:55:41;;;;;;;5.70;1.80;;;6.00;95.00;;;;;;5095605;28;20496;-83
2021/04/25 04:58:06;;;;;;;8.55;1.88;;;6.00;94.90;;;;;;5095311;28;20036;-82
2021/04/25 05:00:32;;;;;;;6.32;2.10;;;6.00;94.80;;;;;;5094218;28;20051;-83
2021/04/25 05:02:57;;;;;;;3.90;1.63;;;6.00;94.60;;;;;;5095224;28;20044;-84
2021/04/25 05:05:23;;;;;;;5.55;1.77;;;6.00;94.50;;;;;;5095406;28;20024;-84
2021/04/25 05:07:49;;;;;;;8.68;2.00;;;5.90;94.20;;;;;;5095686;28;20069;-82
2021/04/25 05:10:14;;;;;;;4.95;1.40;;;5.90;94.30;;;;;;5095253;28;20027;-83
2021/04/25 05:12:40;;;;;;;2.88;1.30;;;5.90;94.30;;;;;;5094639;28;20474;-83
2021/04/25 05:15:07;;;;;;;6.60;1.98;;;6.00;94.30;;;;;;5095127;28;20172;-82
2021/04/25 05:17:33;;;;;;;6.15;1.80;;;6.00;94.20;;;;;;5093743;28;20031;-83
2021/04/25 05:19:58;;;;;;;6.32;1.77;;;6.00;94.20;;;;;;5095041;28;20028;-84
2021/04/25 05:22:25;;;;;;;6.65;1.92;;;6.00;94.10;;;;;;5093807;28;20028;-82
2021/04/25 05:24:51;;;;;;;6.90;1.73;;;6.10;94.00;;;;;;5094750;28;20027;-84
2021/04/25 05:27:18;;;;;;;4.63;1.55;;;6.10;94.00;;;;;;5094754;28;20024;-84
2021/04/25 05:29:44;;;;;;;4.22;1.55;;;6.10;93.80;;;;;;5095117;28;20030;-83
2021/04/25 05:32:09;;;;;;;6.07;1.80;;;6.10;93.80;;;;;;5094854;28;20032;-83
2021/04/25 05:34:35;;;;;;;5.65;1.70;;;6.10;93.80;;;;;;5094498;28;20103;-84
2021/04/25 05:37:01;;;;;;;3.63;1.50;;;6.10;93.50;;;;;;5093578;28;20028;-83
2021/04/25 05:39:27;;;;;;;3.58;1.48;;;6.10;93.50;;;;;;5094439;28;20082;-82
2021/04/25 05:41:52;;;;;;;4.90;1.88;;;6.20;93.60;;;;;;5094699;28;20058;-84
2021/04/25 05:44:18;;;;;;;7.70;2.20;;;6.20;93.50;;;;;;5094820;28;20024;-83
2021/04/25 05:46:44;;;;;;;7.68;1.88;;;6.20;93.40;;;;;;5093376;28;20067;-84
2021/04/25 05:49:09;;;;;;;5.30;1.50;;;6.20;93.50;;;;;;5094788;28;20389;-84
2021/04/25 05:51:35;;;;;;;6.53;1.80;;;6.30;93.40;;;;;;5094605;28;20024;-84
2021/04/25 05:54:01;;;;;;;6.50;1.90;;;6.30;93.30;;;;;;5094452;28;20502;-85
2021/04/25 05:56:27;;;;;;;7.00;1.92;;;6.30;93.20;;;;;;5093461;28;20016;-85
2021/04/25 05:58:54;;;;;;;5.95;1.73;;;6.40;93.30;;;;;;5094902;28;20417;-82
2021/04/25 06:01:19;;;;;;;6.68;1.50;;;6.40;93.30;;;;;;5093172;28;20036;-83
2021/04/25 06:03:45;;;;;;;7.25;1.90;;;6.50;93.30;;;;;;5093292;28;20039;-85
2021/04/25 06:06:10;;;;;;;6.47;1.80;;;6.50;93.10;;;;;;5094462;28;20012;-84
2021/04/25 06:08:36;;;;;;;4.32;1.58;;;6.60;93.00;;;;;;5094286;28;20024;-84
2021/04/25 06:11:03;;;;;;;4.88;1.55;;;6.60;93.10;;;;;;5093303;28;20390;-83
2021/04/25 06:13:29;;;;;;;6.75;1.85;;;6.60;93.00;;;;;;5095028;28;20032;-85
2021/04/25 06:15:55;;;;;;;5.30;1.50;;;6.70;93.00;;;;;;5099959;28;20103;-85
2021/04/25 06:18:20;;;;;;;4.65;1.50;;;6.70;93.00;;;;;;5100197;28;20028;-81
2021/04/25 06:20:46;;;;;;;7.25;2.17;;;6.70;92.90;;;;;;5101034;28;20028;-83
2021/04/25 06:23:13;;;;;;;4.93;1.20;;;6.70;92.90;;;;;;5093556;28;20074;-84
2021/04/25 06:25:39;;;;;;;8.45;2.10;;;6.70;92.70;;;;;;5093155;28;20027;-83
2021/04/25 06:28:05;;;;;;;3.97;1.40;;;6.70;92.60;;;;;;5092997;28;20041;-83
2021/04/25 06:30:31;;;;;;;6.90;2.10;;;6.70;92.60;;;;;;5092862;28;20111;-84
2021/04/25 06:32:56;;;;;;;3.40;1.50;;;6.70;92.60;;;;;;5094115;28;20032;-84
2021/04/25 06:35:22;;;;;;;6.68;1.42;;;6.80;92.50;;;;;;5094361;28;20024;-85
2021/04/25 06:37:48;;;;;;;6.38;1.52;;;6.90;92.60;;;;;;5094280;28;20020;-85
2021/04/25 06:40:15;;;;;;;7.72;1.60;;;6.90;92.60;;;;;;5094347;28;20038;-85
2021/04/25 06:42:41;;;;;;;7.18;2.25;;;6.90;92.30;;;;;;5094039;28;20032;-84
2021/04/25 06:45:13;;;;;;;7.57;1.60;;;7.00;92.30;;;;;;5093799;28;20031;-83
2021/04/25 06:47:39;;;;;;;5.40;1.50;;;7.00;92.40;;;;;;5093067;28;20022;-84
2021/04/25 06:50:08;;;;;;;8.18;1.65;;;7.10;92.40;;;;;;5095494;28;20107;-82
2021/04/25 06:52:34;;;;;;;5.40;1.60;;;7.10;92.20;;;;;;5095580;28;20036;-82
2021/04/25 06:54:59;;;;;;;4.28;1.35;;;7.10;92.20;;;;;;5095600;28;20057;-83
2021/04/25 06:57:27;;;;;;;6.45;1.55;;;7.10;92.30;;;;;;5093431;28;20032;-82
2021/04/25 06:59:53;;;;;;;6.68;1.73;;;7.20;92.20;;;;;;5076182;28;20145;-85
2021/04/25 07:02:18;;;;;;;6.07;1.38;;;7.20;92.20;;;;;;5092311;28;20122;-84
2021/04/25 07:04:44;;;;;;;5.90;1.65;;;7.20;92.10;;;;;;5092444;28;20024;-84
2021/04/25 07:07:11;;;;;;;5.60;1.13;;;7.30;92.10;;;;;;5092346;28;20075;-82
2021/04/25 07:09:36;;;;;;;3.42;1.05;;;7.40;92.10;;;;;;5093161;28;20390;-82
2021/04/25 07:12:02;;;;;;;3.83;0.95;;;7.40;92.00;;;;;;5092392;28;20031;-83
2021/04/25 07:14:28;;;;;;;4.25;1.00;;;7.40;91.90;;;;;;5093959;28;20478;-84
2021/04/25 07:16:53;;;;;;;5.63;1.38;;;7.50;91.80;;;;;;5095221;28;20024;-84
2021/04/25 07:19:19;;;;;;;4.68;1.13;;;7.50;91.80;;;;;;5092054;28;20020;-86
2021/04/25 07:21:45;;;;;;;5.13;1.33;;;7.60;91.70;;;;;;5092964;28;20035;-85
2021/04/25 07:24:10;;;;;;;5.25;1.10;;;7.60;91.70;;;;;;5092996;28;20032;-84
2021/04/25 07:26:36;;;;;;;4.10;1.00;;;7.70;91.50;;;;;;5091903;28;20073;-83
2021/04/25 07:29:03;;;;;;;4.32;1.10;;;7.70;91.30;;;;;;5093177;28;20031;-84
2021/04/25 07:31:28;;;;;;;5.63;1.25;;;7.70;91.30;;;;;;5092890;28;20533;-83
2021/04/25 07:33:54;;;;;;;4.75;1.27;;;7.80;91.20;;;;;;5091724;28;20119;-84
2021/04/25 07:36:20;;;;;;;4.25;1.02;;;7.80;91.00;;;;;;5094143;28;20082;-83
2021/04/25 07:38:45;;;;;;;6.20;2.03;;;7.80;91.00;;;;;;5095868;28;20118;-81
2021/04/25 07:41:11;;;;;;;5.28;1.27;;;7.90;91.00;;;;;;5097137;28;20453;-83
2021/04/25 07:43:38;;;;;;;8.43;1.33;;;7.90;90.90;;;;;;5097246;28;20020;-84
2021/04/25 07:46:04;;;;;;;4.63;1.10;;;7.90;91.00;;;;;;5096932;28;20031;-84
2021/04/25 07:48:30;;;;;;;5.60;1.10;;;8.00;91.00;;;;;;5095973;28;20023;-85
2021/04/25 07:50:56;;;;;;;3.22;1.00;;;8.00;90.90;;;;;;5097107;28;20072;-84
2021/04/25 07:53:22;;;;;;;9.10;1.30;;;8.10;90.80;;;;;;5097027;28;20028;-85
2021/04/25 07:55:47;;;;;;;8.57;1.25;;;8.20;90.70;;;;;;5097108;28;20015;-85
2021/04/25 07:58:13;;;;;;;4.55;1.00;;;8.10;90.60;;;;;;5095434;28;20016;-84
2021/04/25 08:00:38;;;;;;;6.38;1.38;;;8.20;90.40;;;;;;5095430;28;20119;-85
2021/04/25 08:03:05;;;;;;;8.38;1.25;;;8.20;90.40;;;;;;5096799;28;20040;-83
2021/04/25 08:05:31;;;;;;;4.70;1.10;;;8.20;90.50;;;;;;5096478;28;20048;-85
2021/04/25 08:07:57;;;;;;;2.95;0.80;;;8.30;90.40;;;;;;5095442;28;20036;-85
2021/04/25 08:10:23;;;;;;;7.60;1.40;;;8.40;90.50;;;;;;5095547;28;20035;-86
2021/04/25 08:12:48;;;;;;;7.00;1.70;;;8.50;90.50;;;;;;5097695;28;20066;-83
2021/04/25 08:15:14;;;;;;;5.47;1.25;;;8.40;90.30;;;;;;5095443;28;20016;-84
2021/04/25 08:17:40;;;;;;;7.97;1.40;;;8.50;90.40;;;;;;5095364;28;20074;-84
2021/04/25 08:20:07;;;;;;;5.28;1.20;;;8.50;90.30;;;;;;5094999;28;20029;-82
2021/04/25 08:22:33;;;;;;;3.92;1.10;;;8.60;90.20;;;;;;5095080;28;20024;-85
2021/04/25 08:24:59;;;;;;;6.65;0.98;;;8.60;90.20;;;;;;5095208;28;20024;-82
2021/04/25 08:27:24;;;;;;;5.13;0.80;;;8.70;90.10;;;;;;5095070;28;20024;-82
2021/04/25 08:29:50;;;;;;;6.85;1.13;;;8.80;90.10;;;;;;5096372;28;20107;-84
2021/04/25 08:32:15;;;;;;;3.05;0.82;;;8.90;90.00;;;;;;5096153;28;20123;-84
2021/04/25 08:34:41;;;;;;;6.88;1.30;;;8.90;89.80;;;;;;5095397;28;20032;-85
2021/04/25 08:37:07;;;;;;;4.63;1.15;;;9.00;89.60;;;;;;5095991;28;20473;-84
2021/04/25 08:39:34;;;;;;;5.75;1.17;;;9.00;89.40;;;;;;5094420;28;20107;-83
2021/04/25 08:41:59;;;;;;;5.30;1.00;;;9.00;88.30;;;;;;5094475;28;20024;-84
2021/04/25 08:44:25;;;;;;;4.53;1.00;;;9.00;88.30;;;;;;5095745;28;20078;-84
2021/04/25 08:46:53;;;;;;;4.68;1.20;;;9.10;88.40;;;;;;5096003;28;20020;-83
2021/04/25 08:49:24;;;;;;;4.18;1.10;;;9.20;88.40;;;;;;5093593;28;20031;-86
2021/04/25 08:51:51;;;;;;;3.38;1.10;;;9.30;88.20;;;;;;5094565;28;20089;-85
2021/04/25 08:54:20;;;;;;;10.05;1.45;;;9.40;88.00;;;;;;5094630;28;20466;-83
2021/04/25 08:56:46;;;;;;;6.32;1.67;;;9.50;87.50;;;;;;5095732;28;20028;-83
2021/04/25 08:59:13;;;;;;;4.63;1.00;;;9.50;87.50;;;;;;5094331;28;20039;-84
2021/04/25 09:01:38;;;;;;;3.33;0.80;;;9.60;87.50;;;;;;5093848;28;20040;-85
2021/04/25 09:04:04;;;;;;;4.40;1.00;;;9.60;87.50;;;;;;5095252;28;20039;-84
2021/04/25 09:06:30;;;;;;;7.65;1.60;;;9.60;86.90;;;;;;5094299;28;20024;-84
2021/04/25 09:09:00;;;;;;;6.78;1.20;;;9.70;86.80;;;;;;5094325;28;20373;-85
2021/04/25 09:11:39;;;;;;;6.18;1.40;;;9.60;86.10;;;;;;5094280;28;20055;-85
2021/04/25 09:14:17;;;;;;;7.18;1.33;;;9.70;86.30;;;;;;5095441;28;20501;-86
2021/04/25 09:16:55;;;;;;;3.15;0.90;;;9.80;87.00;;;;;;5094433;28;20381;-85
2021/04/25 09:19:22;;;;;;;6.32;0.85;;;10.10;86.30;;;;;;5094860;28;20035;-86
2021/04/25 09:21:59;;;;;;;8.10;1.60;;;10.20;85.50;;;;;;5094367;28;20362;-84
2021/04/25 09:24:32;;;;;;;4.75;0.93;;;10.40;85.00;;;;;;5094114;28;20017;-86
2021/04/25 09:26:58;;;;;;;6.95;1.45;;;10.50;85.00;;;;;;5095180;28;20034;-84
2021/04/25 09:29:26;;;;;;;5.88;1.55;;;10.50;84.80;;;;;;5094647;28;20016;-84
2021/04/25 09:31:55;;;;;;;5.43;1.20;;;10.60;84.30;;;;;;5098045;28;20016;-83
2021/04/25 09:34:26;;;;;;;3.88;0.80;;;10.70;84.40;;;;;;5096240;28;20059;-83
2021/04/25 09:36:52;;;;;;;3.22;0.80;;;10.90;84.40;;;;;;5097700;28;20115;-85
2021/04/25 09:39:18;;;;;;;4.43;1.17;;;11.00;84.20;;;;;;5094679;28;20024;-84
2021/04/25 09:41:45;;;;;;;8.20;1.20;;;11.10;84.10;;;;;;5093789;28;20050;-84
2021/04/25 09:44:37;;;;;;;6.32;1.33;;;11.30;83.10;;;;;;5094341;28;20096;-85
2021/04/25 09:47:05;;;;;;;5.03;0.95;;;12.00;82.40;;;;;;5094086;28;20482;-86
2021/04/25 09:49:45;;;;;;;6.70;1.08;;;12.30;81.50;;;;;;5097918;28;20535;-83
2021/04/25 09:52:37;;;;;;;4.72;1.08;;;12.20;80.00;;;;;;5096128;28;20032;-83
2021/04/25 09:55:20;;;;;;;3.80;1.30;;;12.60;79.20;;;;;;5089593;28;20039;-85
2021/04/25 09:57:47;;;;;;;5.50;1.23;;;12.90;80.70;;;;;;5093336;28;20095;-84
2021/04/25 10:00:14;;;;;;;8.98;1.38;;;13.10;78.40;;;;;;5094744;28;20012;-86
2021/04/25 10:03:01;;;;;;;4.78;1.33;;;12.80;78.20;;;;;;5093701;28;20567;-87
2021/04/25 10:05:28;;;;;;;5.65;1.27;;;12.70;78.20;;;;;;5093722;28;20478;-85
2021/04/25 10:07:54;;;;;;;6.18;1.27;;;12.60;78.10;;;;;;5094022;28;20115;-85
2021/04/25 10:10:20;;;;;;;5.43;1.10;;;12.50;78.00;;;;;;5093213;28;20373;-84
2021/04/25 10:12:46;;;;;;;4.63;0.93;;;12.40;77.50;;;;;;5093517;28;20039;-84
2021/04/25 10:15:13;;;;;;;5.72;1.20;;;12.50;78.00;;;;;;5094334;28;20020;-83
2021/04/25 10:17:47;;;;;;;2.90;0.82;;;12.90;77.80;;;;;;5093337;28;20048;-86
2021/04/25 10:20:15;;;;;;;6.68;1.30;;;13.00;77.00;;;;;;5093528;28;20028;-84
2021/04/25 10:22:43;;;;;;;7.68;1.42;;;13.80;76.80;;;;;;5093494;28;20130;-86
2021/04/25 10:25:15;;;;;;;4.13;0.93;;;14.50;75.00;;;;;;5094129;28;20028;-85
2021/04/25 10:27:45;;;;;;;4.75;1.00;;;14.60;74.80;;;;;;5088613;28;20107;-85
2021/04/25 10:30:15;;;;;;;4.43;1.25;;;14.90;73.90;;;;;;5094431;28;20483;-84
2021/04/25 10:32:43;;;;;;;5.55;1.35;;;15.30;74.20;;;;;;5094282;28;20116;-84
2021/04/25 10:35:21;;;;;;;5.55;1.00;;;15.60;72.80;;;;;;5092769;28;20466;-85
2021/04/25 10:37:49;;;;;;;3.17;1.00;;;15.90;71.30;;;;;;5093559;28;20465;-85
2021/04/25 10:40:36;;;;;;;4.90;1.13;;;15.60;70.50;;;;;;5092460;28;20170;-85
2021/04/25 10:43:10;;;;;;;5.80;1.10;;;15.30;70.40;;;;;;5094320;28;20504;-85
2021/04/25 10:46:00;;;;;;;4.13;0.85;;;15.70;71.40;;;;;;5092578;28;20047;-85
2021/04/25 10:48:29;;;;;;;7.35;1.25;;;16.00;70.20;;;;;;5092535;28;20050;-83
2021/04/25 10:51:12;;;;;;;7.53;1.52;;;16.40;68.50;;;;;;5092600;28;20374;-83
2021/04/25 10:53:39;;;;;;;6.00;1.17;;;17.10;65.60;;;;;;5093818;28;20489;-83
2021/04/25 10:56:18;;;;;;;4.35;1.17;;;17.50;66.00;;;;;;5092263;28;20028;-83
2021/04/25 10:58:45;;;;;;;4.50;0.90;;;17.90;65.10;;;;;;5092136;28;20073;-84
2021/04/25 11:01:39;;;;;;;14.25;2.03;;;17.80;64.30;;;;;;5093046;28;20027;-83
2021/04/25 11:04:06;;;;;;;5.18;1.08;;;17.10;64.30;;;;;;5092364;28;20040;-84
2021/04/25 11:06:31;;;;;;;5.35;1.60;;;16.50;65.40;;;;;;5093409;28;20073;-85
2021/04/25 11:08:57;;;;;;;5.38;1.30;;;16.20;65.40;;;;;;5093330;28;20028;-88
2021/04/25 11:11:37;;;;;;;7.60;1.38;;;16.60;65.80;;;;;;5092680;28;20032;-86
2021/04/25 11:14:04;;;;;;;4.57;1.20;;;17.30;63.40;;;;;;5096542;28;20024;-86
2021/04/25 11:16:31;;;;;;;5.80;1.10;;;17.90;63.00;;;;;;5102585;28;20015;-84
2021/04/25 11:19:06;;;;;;;4.10;1.20;;;18.50;61.00;;;;;;5102227;28;20050;-84
2021/04/25 11:24:06;;;;;;;5.43;1.42;;;19.30;60.20;;;;;;5102784;28;20027;-85
2021/04/25 11:26:41;;;;;;;4.47;1.30;;;19.70;60.30;;;;;;5095717;28;20077;-86
2021/04/25 11:29:41;;;;;;;6.22;1.10;;;20.10;57.10;;;;;;5093413;28;20020;-86
2021/04/25 11:32:07;;;;;;;5.20;1.30;;;20.20;57.10;;;;;;5093333;28;20056;-86
2021/04/25 11:34:32;;;;;;;4.68;0.95;;;20.20;55.70;;;;;;5091567;28;20060;-84
2021/04/25 11:37:05;;;;;;;3.80;0.90;;;20.10;56.30;;;;;;5090890;28;20115;-85
2021/04/25 11:39:32;;;;;;;;;;;20.40;56.20;;;;;;5097259;28;20077;-85
2021/04/25 11:41:59;;;;;;;4.10;1.08;;;20.70;54.30;;;;;;5113403;28;19919;-84
2021/04/25 11:44:36;;;;;;;2.53;0.80;;;21.00;54.90;;;;;;5112087;28;20026;-83
2021/04/25 11:47:07;;;;;;;5.80;1.23;;;21.40;54.60;;;;;;5113335;28;20028;-83
2021/04/25 11:49:36;;;;;;;6.25;0.95;;;21.90;53.90;;;;;;5112197;28;20487;-85
2021/04/25 11:52:29;;;;;;;5.13;1.20;;;21.90;52.80;;;;;;5113289;28;20016;-85
2021/04/25 11:55:08;;;;;;;4.45;1.13;;;21.60;52.50;;;;;;5110158;28;20035;-85
2021/04/25 11:57:39;;;;;;;3.72;1.02;;;21.70;53.20;;;;;;5114169;28;20019;-85
2021/04/25 12:00:14;;;;;;;4.93;0.90;;;21.30;52.30;;;;;;5112672;28;20028;-82
2021/04/25 12:02:51;;;;;;;3.42;1.00;;;20.20;52.80;;;;;;5112722;28;20048;-82
2021/04/25 12:05:22;;;;;;;4.18;1.05;;;19.80;53.90;;;;;;5112843;28;20030;-83
2021/04/25 12:07:54;;;;;;;4.00;1.00;;;20.20;53.70;;;;;;5112714;28;20023;-86
2021/04/25 12:10:21;;;;;;;4.50;1.20;;;20.80;52.90;;;;;;5113894;28;20034;-85
2021/04/25 12:13:19;;;;;;;5.80;1.00;;;20.50;52.00;;;;;;5116575;28;20031;-84
2021/04/25 12:15:49;;;;;;;4.70;1.10;;;20.40;52.40;;;;;;5092285;28;20108;-85
2021/04/25 12:18:18;;;;;;;4.72;1.20;;;20.50;52.60;;;;;;5117391;28;20016;-82
2021/04/25 12:20:46;;;;;;;3.78;1.10;;;20.80;51.50;;;;;;5115334;28;20035;-85
2021/04/25 12:23:20;;;;;;;5.38;1.40;;;20.90;51.70;;;;;;5116496;28;20028;-85
2021/04/25 12:25:47;;;;;;;3.35;1.00;;;21.30;50.60;;;;;;5117242;28;20024;-86
2021/04/25 12:28:14;;;;;;;2.83;0.90;;;21.90;50.90;;;;;;5116018;28;20478;-86
2021/04/25 12:30:44;;;;;;;6.93;1.23;;;22.20;50.50;;;;;;5115730;28;20023;-86
2021/04/25 12:33:20;;;;;;;3.72;0.88;;;22.50;49.40;;;;;;5116311;28;20027;-85
2021/04/25 12:35:51;;;;;;;4.63;0.90;;;22.70;49.10;;;;;;5100646;28;20024;-80
2021/04/25 12:38:30;;;;;;;4.57;0.90;;;22.50;48.50;;;;;;5094551;28;20070;-84
2021/04/25 12:41:00;;;;;;;3.80;0.90;;;22.50;48.60;;;;;;5108939;28;20031;-84
2021/04/25 12:43:28;;;;;;;2.13;0.98;;;22.80;48.70;;;;;;5104557;28;20511;-84
2021/04/25 12:45:55;;;;;;;4.05;1.02;;;23.10;48.60;;;;;;5091293;28;20046;-81
2021/04/25 12:48:31;;;;;;;4.10;1.02;;;23.20;48.00;;;;;;5102332;28;20038;-83
2021/04/25 12:50:59;;;;;;;3.65;0.73;;;23.20;47.90;;;;;;5093431;28;20063;-85
2021/04/25 12:53:25;;;;;;;5.30;1.10;;;23.30;47.90;;;;;;5106384;28;20086;-84
2021/04/25 12:55:51;;;;;;;4.32;1.08;;;23.10;47.40;;;;;;5098580;28;20027;-83
2021/04/25 12:58:16;;;;;;;4.80;0.85;;;23.00;47.30;;;;;;5098173;28;20028;-83
2021/04/25 13:00:42;;;;;;;5.22;1.02;;;23.10;47.50;;;;;;5095218;28;20055;-85